sensor_id;sensor_type;location;lat;lon;timestamp;pressure;altitude;pressure_sealevel;temperature;humidity
68456;BME280;55437;55.046;38.838;2023-07-29T00:02:01;98845.44;;;18.48;83.11
68456;BME280;55437;55.046;38.838;2023-07-29T00:04:27;98845.69;;;18.45;83.19
68456;BME280;55437;55.046;38.838;2023-07-29T00:06:53;98846.19;;;18.39;83.30
68456;BME280;55437;55.046;38.838;2023-07-29T00:09:18;98846.88;;;18.41;83.44
68456;BME280;55437;55.046;38.838;2023-07-29T00:11:44;98854.81;;;18.40;83.37
68456;BME280;55437;55.046;38.838;2023-07-29T00:14:10;98863.41;;;18.40;83.18
68456;BME280;55437;55.046;38.838;2023-07-29T00:16:36;98865.66;;;18.45;83.33
68456;BME280;55437;55.046;38.838;2023-07-29T00:19:02;98862.13;;;18.46;83.13
68456;BME280;55437;55.046;38.838;2023-07-29T00:21:28;98838.97;;;18.43;83.14
68456;BME280;55437;55.046;38.838;2023-07-29T00:23:54;98804.34;;;18.42;83.13
68456;BME280;55437;55.046;38.838;2023-07-29T00:26:21;98785.25;;;18.32;83.35
68456;BME280;55437;55.046;38.838;2023-07-29T00:28:47;98770.84;;;18.28;83.46
68456;BME280;55437;55.046;38.838;2023-07-29T00:31:13;98764.38;;;18.22;83.68
68456;BME280;55437;55.046;38.838;2023-07-29T00:33:38;98758.59;;;18.19;83.75
68456;BME280;55437;55.046;38.838;2023-07-29T00:36:04;98755.41;;;18.15;83.99
68456;BME280;55437;55.046;38.838;2023-07-29T00:38:30;98755.81;;;18.11;84.34
68456;BME280;55437;55.046;38.838;2023-07-29T00:41:01;98760.28;;;18.09;84.47
68456;BME280;55437;55.046;38.838;2023-07-29T00:43:27;98761.94;;;18.10;84.47
68456;BME280;55437;55.046;38.838;2023-07-29T00:45:53;98748.00;;;18.11;84.58
68456;BME280;55437;55.046;38.838;2023-07-29T00:48:19;98738.28;;;18.13;84.68
68456;BME280;55437;55.046;38.838;2023-07-29T00:50:45;98743.63;;;18.11;84.85
68456;BME280;55437;55.046;38.838;2023-07-29T00:53:12;98745.13;;;18.14;84.85
68456;BME280;55437;55.046;38.838;2023-07-29T00:55:38;98757.19;;;18.15;84.78
68456;BME280;55437;55.046;38.838;2023-07-29T00:58:04;98762.63;;;18.12;84.80
68456;BME280;55437;55.046;38.838;2023-07-29T01:00:32;98771.84;;;18.05;84.95
68456;BME280;55437;55.046;38.838;2023-07-29T01:02:58;98782.97;;;18.07;84.97
68456;BME280;55437;55.046;38.838;2023-07-29T01:05:31;98796.53;;;18.10;84.91
68456;BME280;55437;55.046;38.838;2023-07-29T01:08:09;98829.09;;;18.14;84.75
68456;BME280;55437;55.046;38.838;2023-07-29T01:16:42;98927.25;;;18.33;84.46
68456;BME280;55437;55.046;38.838;2023-07-29T01:20:01;98886.50;;;18.33;84.29
68456;BME280;55437;55.046;38.838;2023-07-29T01:22:02;98885.78;;;18.31;84.25
68456;BME280;55437;55.046;38.838;2023-07-29T01:24:29;98881.44;;;18.21;84.37
68456;BME280;55437;55.046;38.838;2023-07-29T01:26:55;98860.66;;;18.10;84.47
68456;BME280;55437;55.046;38.838;2023-07-29T01:29:21;98858.75;;;18.00;84.93
68456;BME280;55437;55.046;38.838;2023-07-29T01:31:50;98859.00;;;17.97;85.25
68456;BME280;55437;55.046;38.838;2023-07-29T01:34:24;98870.09;;;17.99;85.27
68456;BME280;55437;55.046;38.838;2023-07-29T01:36:53;98879.69;;;17.99;85.39
68456;BME280;55437;55.046;38.838;2023-07-29T01:39:21;98882.84;;;18.03;85.71
68456;BME280;55437;55.046;38.838;2023-07-29T01:41:48;98887.47;;;18.10;85.82
68456;BME280;55437;55.046;38.838;2023-07-29T01:44:15;98884.59;;;18.13;85.63
68456;BME280;55437;55.046;38.838;2023-07-29T01:46:44;98889.44;;;18.18;85.94
68456;BME280;55437;55.046;38.838;2023-07-29T01:49:09;98891.81;;;18.21;85.92
68456;BME280;55437;55.046;38.838;2023-07-29T01:51:35;98896.06;;;18.22;85.80
68456;BME280;55437;55.046;38.838;2023-07-29T01:54:01;98885.69;;;18.22;85.63
68456;BME280;55437;55.046;38.838;2023-07-29T01:56:27;98887.19;;;18.24;85.58
68456;BME280;55437;55.046;38.838;2023-07-29T01:58:55;98873.97;;;18.27;85.70
68456;BME280;55437;55.046;38.838;2023-07-29T02:01:21;98879.03;;;18.29;85.61
68456;BME280;55437;55.046;38.838;2023-07-29T02:03:47;98864.28;;;18.29;85.43
68456;BME280;55437;55.046;38.838;2023-07-29T02:06:18;98852.34;;;18.27;85.68
68456;BME280;55437;55.046;38.838;2023-07-29T02:08:44;98847.25;;;18.25;85.57
68456;BME280;55437;55.046;38.838;2023-07-29T02:11:10;98833.84;;;18.20;85.64
68456;BME280;55437;55.046;38.838;2023-07-29T02:13:36;98831.22;;;18.20;85.98
68456;BME280;55437;55.046;38.838;2023-07-29T02:16:02;98839.75;;;18.22;85.81
68456;BME280;55437;55.046;38.838;2023-07-29T02:18:28;98834.66;;;18.21;85.86
68456;BME280;55437;55.046;38.838;2023-07-29T02:20:54;98826.97;;;18.19;85.57
68456;BME280;55437;55.046;38.838;2023-07-29T02:23:20;98826.28;;;18.17;85.72
68456;BME280;55437;55.046;38.838;2023-07-29T02:25:46;98811.97;;;18.12;85.88
68456;BME280;55437;55.046;38.838;2023-07-29T02:28:12;98800.91;;;18.10;86.04
68456;BME280;55437;55.046;38.838;2023-07-29T02:30:41;98804.44;;;18.09;86.03
68456;BME280;55437;55.046;38.838;2023-07-29T02:33:10;98801.97;;;18.07;86.13
68456;BME280;55437;55.046;38.838;2023-07-29T02:35:36;98796.28;;;18.02;86.28
68456;BME280;55437;55.046;38.838;2023-07-29T02:38:02;98790.03;;;18.05;86.37
68456;BME280;55437;55.046;38.838;2023-07-29T02:40:28;98779.66;;;18.05;86.33
68456;BME280;55437;55.046;38.838;2023-07-29T02:42:55;98792.75;;;18.03;86.51
68456;BME280;55437;55.046;38.838;2023-07-29T02:45:20;98784.72;;;18.06;86.53
68456;BME280;55437;55.046;38.838;2023-07-29T02:47:46;98786.16;;;18.10;86.53
68456;BME280;55437;55.046;38.838;2023-07-29T02:50:12;98787.28;;;18.17;86.52
68456;BME280;55437;55.046;38.838;2023-07-29T02:52:38;98787.50;;;18.25;86.41
68456;BME280;55437;55.046;38.838;2023-07-29T02:55:04;98774.63;;;18.24;86.23
68456;BME280;55437;55.046;38.838;2023-07-29T02:57:31;98766.41;;;18.19;86.30
68456;BME280;55437;55.046;38.838;2023-07-29T02:59:56;98758.84;;;18.16;86.15
68456;BME280;55437;55.046;38.838;2023-07-29T03:02:22;98772.88;;;18.13;86.00
68456;BME280;55437;55.046;38.838;2023-07-29T03:04:48;98770.19;;;18.04;86.08
68456;BME280;55437;55.046;38.838;2023-07-29T03:07:14;98768.78;;;17.99;85.98
68456;BME280;55437;55.046;38.838;2023-07-29T03:09:40;98767.28;;;17.97;86.02
68456;BME280;55437;55.046;38.838;2023-07-29T03:12:08;98750.88;;;17.96;86.01
68456;BME280;55437;55.046;38.838;2023-07-29T03:14:34;98755.59;;;17.91;86.20
68456;BME280;55437;55.046;38.838;2023-07-29T03:17:03;98755.97;;;17.87;86.28
68456;BME280;55437;55.046;38.838;2023-07-29T03:19:32;98747.13;;;17.78;86.35
68456;BME280;55437;55.046;38.838;2023-07-29T03:21:58;98739.34;;;17.78;86.66
68456;BME280;55437;55.046;38.838;2023-07-29T03:24:24;98738.88;;;17.73;86.37
68456;BME280;55437;55.046;38.838;2023-07-29T03:26:49;98735.19;;;17.76;86.36
68456;BME280;55437;55.046;38.838;2023-07-29T03:29:15;98720.22;;;17.79;86.44
68456;BME280;55437;55.046;38.838;2023-07-29T03:31:41;98717.63;;;17.79;86.37
68456;BME280;55437;55.046;38.838;2023-07-29T03:34:07;98702.75;;;17.81;86.68
68456;BME280;55437;55.046;38.838;2023-07-29T03:36:33;98693.88;;;17.84;86.26
68456;BME280;55437;55.046;38.838;2023-07-29T03:38:59;98680.41;;;17.90;85.84
68456;BME280;55437;55.046;38.838;2023-07-29T03:41:26;98668.00;;;17.93;86.05
68456;BME280;55437;55.046;38.838;2023-07-29T03:43:52;98654.44;;;17.90;85.78
68456;BME280;55437;55.046;38.838;2023-07-29T03:46:18;98642.50;;;17.87;85.75
68456;BME280;55437;55.046;38.838;2023-07-29T03:48:47;98638.28;;;17.86;85.43
68456;BME280;55437;55.046;38.838;2023-07-29T03:51:13;98637.06;;;17.90;85.54
68456;BME280;55437;55.046;38.838;2023-07-29T03:53:39;98620.44;;;17.93;85.60
68456;BME280;55437;55.046;38.838;2023-07-29T03:56:05;98616.06;;;17.93;85.73
68456;BME280;55437;55.046;38.838;2023-07-29T03:58:31;98621.00;;;17.96;85.58
68456;BME280;55437;55.046;38.838;2023-07-29T04:00:57;98615.59;;;17.88;85.37
68456;BME280;55437;55.046;38.838;2023-07-29T04:03:23;98624.22;;;17.89;85.47
68456;BME280;55437;55.046;38.838;2023-07-29T04:05:51;98632.00;;;17.89;85.42
68456;BME280;55437;55.046;38.838;2023-07-29T04:08:18;98652.41;;;17.93;85.38
68456;BME280;55437;55.046;38.838;2023-07-29T04:10:44;98668.94;;;17.92;85.22
68456;BME280;55437;55.046;38.838;2023-07-29T04:13:10;98695.03;;;17.91;84.89
68456;BME280;55437;55.046;38.838;2023-07-29T04:15:35;98714.63;;;17.95;85.02
68456;BME280;55437;55.046;38.838;2023-07-29T04:18:02;98714.88;;;17.92;85.09
68456;BME280;55437;55.046;38.838;2023-07-29T04:20:28;98718.41;;;17.91;85.00
68456;BME280;55437;55.046;38.838;2023-07-29T04:23:12;98730.56;;;17.90;85.10
68456;BME280;55437;55.046;38.838;2023-07-29T04:25:38;98725.13;;;17.93;84.85
68456;BME280;55437;55.046;38.838;2023-07-29T04:28:04;98744.63;;;17.99;84.85
68456;BME280;55437;55.046;38.838;2023-07-29T04:30:30;98748.72;;;18.02;84.89
68456;BME280;55437;55.046;38.838;2023-07-29T04:32:56;98746.22;;;18.11;84.87
68456;BME280;55437;55.046;38.838;2023-07-29T04:35:22;98748.44;;;18.16;84.83
68456;BME280;55437;55.046;38.838;2023-07-29T04:37:48;98734.03;;;18.23;84.70
68456;BME280;55437;55.046;38.838;2023-07-29T04:40:14;98745.19;;;18.34;84.69
68456;BME280;55437;55.046;38.838;2023-07-29T04:42:40;98747.41;;;18.39;84.15
68456;BME280;55437;55.046;38.838;2023-07-29T04:45:06;98749.31;;;18.37;83.93
68456;BME280;55437;55.046;38.838;2023-07-29T04:47:32;98749.06;;;18.40;83.95
68456;BME280;55437;55.046;38.838;2023-07-29T04:49:58;98750.13;;;18.38;83.68
68456;BME280;55437;55.046;38.838;2023-07-29T04:52:24;98746.69;;;18.37;83.34
68456;BME280;55437;55.046;38.838;2023-07-29T04:54:51;98740.84;;;18.35;83.66
68456;BME280;55437;55.046;38.838;2023-07-29T04:57:18;98726.66;;;18.28;83.43
68456;BME280;55437;55.046;38.838;2023-07-29T04:59:44;98727.72;;;18.25;83.72
68456;BME280;55437;55.046;38.838;2023-07-29T05:02:09;98723.88;;;18.20;83.58
68456;BME280;55437;55.046;38.838;2023-07-29T05:04:36;98707.81;;;18.15;83.44
68456;BME280;55437;55.046;38.838;2023-07-29T05:07:03;98717.06;;;18.08;83.63
68456;BME280;55437;55.046;38.838;2023-07-29T05:09:28;98707.28;;;18.00;83.89
68456;BME280;55437;55.046;38.838;2023-07-29T05:11:54;98719.19;;;18.03;83.80
68456;BME280;55437;55.046;38.838;2023-07-29T05:14:20;98719.31;;;18.01;83.84
68456;BME280;55437;55.046;38.838;2023-07-29T05:16:46;98720.25;;;18.00;84.09
68456;BME280;55437;55.046;38.838;2023-07-29T05:19:13;98722.75;;;18.02;84.28
68456;BME280;55437;55.046;38.838;2023-07-29T05:21:39;98713.44;;;17.99;84.16
68456;BME280;55437;55.046;38.838;2023-07-29T05:24:05;98715.06;;;18.00;84.04
68456;BME280;55437;55.046;38.838;2023-07-29T05:26:30;98715.78;;;18.02;84.01
68456;BME280;55437;55.046;38.838;2023-07-29T05:28:56;98718.25;;;18.04;84.11
68456;BME280;55437;55.046;38.838;2023-07-29T05:31:22;98720.94;;;18.13;84.09
68456;BME280;55437;55.046;38.838;2023-07-29T05:33:48;98721.03;;;18.23;83.94
68456;BME280;55437;55.046;38.838;2023-07-29T05:36:15;98730.69;;;18.32;83.74
68456;BME280;55437;55.046;38.838;2023-07-29T05:38:41;98734.16;;;18.42;83.65
68456;BME280;55437;55.046;38.838;2023-07-29T05:41:07;98735.06;;;18.52;83.76
68456;BME280;55437;55.046;38.838;2023-07-29T05:43:34;98743.72;;;18.74;83.55
68456;BME280;55437;55.046;38.838;2023-07-29T05:46:00;98754.63;;;18.88;83.40
68456;BME280;55437;55.046;38.838;2023-07-29T05:48:27;98750.72;;;18.94;83.03
68456;BME280;55437;55.046;38.838;2023-07-29T05:50:52;98758.25;;;18.97;82.42
68456;BME280;55437;55.046;38.838;2023-07-29T05:53:19;98759.88;;;18.98;82.32
68456;BME280;55437;55.046;38.838;2023-07-29T05:55:44;98747.47;;;19.01;82.28
68456;BME280;55437;55.046;38.838;2023-07-29T05:58:10;98741.69;;;18.98;81.98
68456;BME280;55437;55.046;38.838;2023-07-29T06:00:36;98738.91;;;18.90;81.93
68456;BME280;55437;55.046;38.838;2023-07-29T06:03:02;98752.09;;;18.98;81.79
68456;BME280;55437;55.046;38.838;2023-07-29T06:05:28;98756.53;;;19.07;81.80
68456;BME280;55437;55.046;38.838;2023-07-29T06:07:54;98767.94;;;19.16;81.62
68456;BME280;55437;55.046;38.838;2023-07-29T06:10:20;98777.16;;;19.20;81.65
68456;BME280;55437;55.046;38.838;2023-07-29T06:12:47;98783.72;;;19.24;81.28
68456;BME280;55437;55.046;38.838;2023-07-29T06:15:14;98786.22;;;19.25;81.19
68456;BME280;55437;55.046;38.838;2023-07-29T06:17:41;98787.16;;;19.24;80.94
68456;BME280;55437;55.046;38.838;2023-07-29T06:20:08;98790.72;;;19.23;80.98
68456;BME280;55437;55.046;38.838;2023-07-29T06:22:34;98790.72;;;19.23;80.77
68456;BME280;55437;55.046;38.838;2023-07-29T06:25:00;98790.59;;;19.25;80.77
68456;BME280;55437;55.046;38.838;2023-07-29T06:27:26;98791.16;;;19.28;80.65
68456;BME280;55437;55.046;38.838;2023-07-29T06:29:52;98788.56;;;19.28;80.50
68456;BME280;55437;55.046;38.838;2023-07-29T06:32:18;98781.09;;;19.14;80.08
68456;BME280;55437;55.046;38.838;2023-07-29T06:34:44;98778.34;;;19.16;80.35
68456;BME280;55437;55.046;38.838;2023-07-29T06:37:10;98766.03;;;19.18;80.50
68456;BME280;55437;55.046;38.838;2023-07-29T06:40:01;98764.38;;;19.17;80.56
68456;BME280;55437;55.046;38.838;2023-07-29T06:42:27;98769.28;;;19.10;80.47
68456;BME280;55437;55.046;38.838;2023-07-29T06:44:52;98768.44;;;19.10;80.38
68456;BME280;55437;55.046;38.838;2023-07-29T06:47:18;98771.00;;;19.00;80.24
68456;BME280;55437;55.046;38.838;2023-07-29T06:49:45;98774.44;;;19.00;80.22
68456;BME280;55437;55.046;38.838;2023-07-29T06:52:30;98770.28;;;18.98;80.20
68456;BME280;55437;55.046;38.838;2023-07-29T06:54:56;98792.50;;;19.02;80.42
68456;BME280;55437;55.046;38.838;2023-07-29T06:57:23;98805.81;;;19.08;80.49
68456;BME280;55437;55.046;38.838;2023-07-29T06:59:49;98817.75;;;19.11;80.22
68456;BME280;55437;55.046;38.838;2023-07-29T07:02:15;98813.09;;;19.05;80.26
68456;BME280;55437;55.046;38.838;2023-07-29T07:04:41;98813.31;;;19.02;80.20
68456;BME280;55437;55.046;38.838;2023-07-29T07:07:07;98803.16;;;18.99;80.29
68456;BME280;55437;55.046;38.838;2023-07-29T07:09:32;98795.81;;;19.04;80.37
68456;BME280;55437;55.046;38.838;2023-07-29T07:11:59;98797.72;;;19.02;80.58
68456;BME280;55437;55.046;38.838;2023-07-29T07:14:25;98807.53;;;18.98;80.41
68456;BME280;55437;55.046;38.838;2023-07-29T07:16:52;98802.91;;;19.02;80.50
68456;BME280;55437;55.046;38.838;2023-07-29T07:19:18;98810.91;;;19.10;80.70
68456;BME280;55437;55.046;38.838;2023-07-29T07:21:44;98811.47;;;19.14;80.32
68456;BME280;55437;55.046;38.838;2023-07-29T07:24:11;98804.63;;;19.13;80.22
68456;BME280;55437;55.046;38.838;2023-07-29T07:26:38;98810.66;;;19.13;80.02
68456;BME280;55437;55.046;38.838;2023-07-29T07:29:04;98812.75;;;19.19;80.07
68456;BME280;55437;55.046;38.838;2023-07-29T07:31:33;98815.22;;;19.21;79.86
68456;BME280;55437;55.046;38.838;2023-07-29T07:33:59;98813.00;;;19.16;79.90
68456;BME280;55437;55.046;38.838;2023-07-29T07:36:26;98822.97;;;19.11;80.27
68456;BME280;55437;55.046;38.838;2023-07-29T07:38:52;98821.75;;;19.15;80.35
68456;BME280;55437;55.046;38.838;2023-07-29T07:41:18;98826.44;;;19.21;80.09
68456;BME280;55437;55.046;38.838;2023-07-29T07:43:44;98826.31;;;19.23;80.03
68456;BME280;55437;55.046;38.838;2023-07-29T07:46:10;98823.34;;;19.27;80.16
68456;BME280;55437;55.046;38.838;2023-07-29T07:48:37;98824.00;;;19.20;79.97
68456;BME280;55437;55.046;38.838;2023-07-29T07:51:13;98823.34;;;19.27;79.99
68456;BME280;55437;55.046;38.838;2023-07-29T07:53:39;98833.88;;;19.26;79.90
68456;BME280;55437;55.046;38.838;2023-07-29T07:56:06;98829.69;;;19.34;79.88
68456;BME280;55437;55.046;38.838;2023-07-29T07:58:33;98826.69;;;19.39;79.83
68456;BME280;55437;55.046;38.838;2023-07-29T08:01:24;98822.56;;;19.36;79.78
68456;BME280;55437;55.046;38.838;2023-07-29T08:03:50;98820.66;;;19.38;79.69
68456;BME280;55437;55.046;38.838;2023-07-29T08:06:16;98819.47;;;19.42;79.76
68456;BME280;55437;55.046;38.838;2023-07-29T08:08:42;98815.72;;;19.35;79.32
68456;BME280;55437;55.046;38.838;2023-07-29T08:11:08;98806.69;;;19.39;79.35
68456;BME280;55437;55.046;38.838;2023-07-29T08:13:34;98804.22;;;19.38;79.37
68456;BME280;55437;55.046;38.838;2023-07-29T08:16:00;98811.84;;;19.30;79.20
68456;BME280;55437;55.046;38.838;2023-07-29T08:18:26;98807.16;;;19.24;79.35
68456;BME280;55437;55.046;38.838;2023-07-29T08:20:57;98803.94;;;19.31;79.25
68456;BME280;55437;55.046;38.838;2023-07-29T08:23:27;98807.78;;;19.37;79.53
68456;BME280;55437;55.046;38.838;2023-07-29T08:25:58;98799.75;;;19.19;79.14
68456;BME280;55437;55.046;38.838;2023-07-29T08:28:38;98797.41;;;19.16;79.49
68456;BME280;55437;55.046;38.838;2023-07-29T08:31:05;98798.09;;;19.18;79.68
68456;BME280;55437;55.046;38.838;2023-07-29T08:33:32;98793.84;;;19.17;79.58
68456;BME280;55437;55.046;38.838;2023-07-29T08:35:59;98792.13;;;19.27;79.36
68456;BME280;55437;55.046;38.838;2023-07-29T08:38:25;98793.88;;;19.27;79.49
68456;BME280;55437;55.046;38.838;2023-07-29T08:41:06;98797.72;;;19.32;79.38
68456;BME280;55437;55.046;38.838;2023-07-29T08:43:32;98792.81;;;19.29;79.40
68456;BME280;55437;55.046;38.838;2023-07-29T08:45:59;98799.34;;;19.24;79.47
68456;BME280;55437;55.046;38.838;2023-07-29T08:48:41;98797.53;;;19.15;79.62
68456;BME280;55437;55.046;38.838;2023-07-29T08:51:10;98805.41;;;19.03;79.90
68456;BME280;55437;55.046;38.838;2023-07-29T08:53:37;98797.72;;;19.02;79.81
68456;BME280;55437;55.046;38.838;2023-07-29T08:56:04;98807.06;;;19.04;79.84
68456;BME280;55437;55.046;38.838;2023-07-29T08:58:31;98812.81;;;19.08;80.03
68456;BME280;55437;55.046;38.838;2023-07-29T09:00:57;98801.72;;;19.06;80.11
68456;BME280;55437;55.046;38.838;2023-07-29T09:03:24;98787.81;;;18.96;80.43
68456;BME280;55437;55.046;38.838;2023-07-29T09:05:51;98784.53;;;18.94;80.29
68456;BME280;55437;55.046;38.838;2023-07-29T09:08:17;98787.97;;;18.94;80.44
68456;BME280;55437;55.046;38.838;2023-07-29T09:10:43;98797.13;;;18.98;80.48
68456;BME280;55437;55.046;38.838;2023-07-29T09:13:09;98800.38;;;18.91;80.27
68456;BME280;55437;55.046;38.838;2023-07-29T09:15:36;98802.84;;;18.92;80.21
68456;BME280;55437;55.046;38.838;2023-07-29T09:18:16;98799.69;;;18.89;80.38
68456;BME280;55437;55.046;38.838;2023-07-29T09:20:43;98815.03;;;18.92;80.41
68456;BME280;55437;55.046;38.838;2023-07-29T09:23:10;98813.81;;;18.96;80.44
68456;BME280;55437;55.046;38.838;2023-07-29T09:25:36;98814.22;;;18.91;80.43
68456;BME280;55437;55.046;38.838;2023-07-29T09:28:08;98807.13;;;18.93;80.35
68456;BME280;55437;55.046;38.838;2023-07-29T09:30:53;98813.56;;;18.99;80.35
68456;BME280;55437;55.046;38.838;2023-07-29T09:33:19;98808.13;;;19.02;80.17
68456;BME280;55437;55.046;38.838;2023-07-29T09:35:45;98816.63;;;19.04;79.98
68456;BME280;55437;55.046;38.838;2023-07-29T09:38:14;98820.56;;;18.98;79.98
68456;BME280;55437;55.046;38.838;2023-07-29T09:40:41;98816.81;;;18.91;80.14
68456;BME280;55437;55.046;38.838;2023-07-29T09:43:09;98822.72;;;18.93;80.05
68456;BME280;55437;55.046;38.838;2023-07-29T09:45:36;98825.44;;;18.92;80.11
68456;BME280;55437;55.046;38.838;2023-07-29T09:48:03;98830.78;;;18.90;80.20
68456;BME280;55437;55.046;38.838;2023-07-29T09:50:35;98842.25;;;18.88;80.14
68456;BME280;55437;55.046;38.838;2023-07-29T09:53:03;98849.34;;;18.86;80.19
68456;BME280;55437;55.046;38.838;2023-07-29T09:55:30;98856.97;;;18.78;80.29
68456;BME280;55437;55.046;38.838;2023-07-29T09:57:58;98861.44;;;18.76;80.28
68456;BME280;55437;55.046;38.838;2023-07-29T10:00:31;98868.19;;;18.78;80.06
68456;BME280;55437;55.046;38.838;2023-07-29T10:02:58;98860.19;;;18.70;80.02
68456;BME280;55437;55.046;38.838;2023-07-29T10:05:28;98861.84;;;18.71;80.12
68456;BME280;55437;55.046;38.838;2023-07-29T10:07:56;98871.72;;;18.77;80.19
68456;BME280;55437;55.046;38.838;2023-07-29T10:10:23;98880.47;;;18.76;80.28
68456;BME280;55437;55.046;38.838;2023-07-29T10:12:50;98876.34;;;18.74;80.09
68456;BME280;55437;55.046;38.838;2023-07-29T10:16:00;98883.47;;;18.72;80.22
68456;BME280;55437;55.046;38.838;2023-07-29T10:18:30;98881.94;;;18.69;80.46
68456;BME280;55437;55.046;38.838;2023-07-29T10:20:58;98876.63;;;18.70;80.42
68456;BME280;55437;55.046;38.838;2023-07-29T10:23:26;98875.41;;;18.75;80.39
68456;BME280;55437;55.046;38.838;2023-07-29T10:26:04;98868.81;;;18.70;80.52
68456;BME280;55437;55.046;38.838;2023-07-29T10:28:32;98875.53;;;18.73;80.80
68456;BME280;55437;55.046;38.838;2023-07-29T10:30:59;98872.19;;;18.82;80.79
68456;BME280;55437;55.046;38.838;2023-07-29T10:33:26;98873.50;;;18.77;80.67
68456;BME280;55437;55.046;38.838;2023-07-29T10:35:55;98875.88;;;18.80;81.13
68456;BME280;55437;55.046;38.838;2023-07-29T10:38:25;98873.38;;;18.78;80.63
68456;BME280;55437;55.046;38.838;2023-07-29T10:40:56;98873.88;;;18.72;80.41
68456;BME280;55437;55.046;38.838;2023-07-29T10:43:31;98876.84;;;18.67;80.63
68456;BME280;55437;55.046;38.838;2023-07-29T10:46:14;98883.25;;;18.52;80.65
68456;BME280;55437;55.046;38.838;2023-07-29T10:51:36;98886.47;;;18.45;81.12
68456;BME280;55437;55.046;38.838;2023-07-29T10:56:31;98875.56;;;18.51;81.30
68456;BME280;55437;55.046;38.838;2023-07-29T11:01:56;98864.16;;;18.31;81.73
68456;BME280;55437;55.046;38.838;2023-07-29T11:04:31;98858.34;;;18.39;82.14
68456;BME280;55437;55.046;38.838;2023-07-29T11:17:52;98841.84;;;18.28;82.30
68456;BME280;55437;55.046;38.838;2023-07-29T11:20:29;98850.22;;;18.32;82.30
68456;BME280;55437;55.046;38.838;2023-07-29T11:22:58;98853.25;;;18.37;82.43
68456;BME280;55437;55.046;38.838;2023-07-29T11:25:28;98856.44;;;18.41;82.35
68456;BME280;55437;55.046;38.838;2023-07-29T11:27:56;98851.75;;;18.34;82.54
68456;BME280;55437;55.046;38.838;2023-07-29T11:30:25;98850.25;;;18.21;82.49
68456;BME280;55437;55.046;38.838;2023-07-29T11:32:58;98851.31;;;18.18;82.73
68456;BME280;55437;55.046;38.838;2023-07-29T11:35:25;98853.06;;;18.18;82.95
68456;BME280;55437;55.046;38.838;2023-07-29T11:37:53;98849.53;;;18.19;82.73
68456;BME280;55437;55.046;38.838;2023-07-29T11:40:22;98834.66;;;18.21;82.87
68456;BME280;55437;55.046;38.838;2023-07-29T11:42:50;98836.16;;;18.23;82.74
68456;BME280;55437;55.046;38.838;2023-07-29T11:45:17;98836.31;;;18.22;82.85
68456;BME280;55437;55.046;38.838;2023-07-29T11:47:43;98842.81;;;18.16;82.95
68456;BME280;55437;55.046;38.838;2023-07-29T11:50:10;98835.94;;;18.15;82.93
68456;BME280;55437;55.046;38.838;2023-07-29T11:52:37;98840.84;;;17.97;82.72
68456;BME280;55437;55.046;38.838;2023-07-29T11:55:05;98855.22;;;18.02;83.08
68456;BME280;55437;55.046;38.838;2023-07-29T11:57:36;98868.19;;;18.02;83.01
68456;BME280;55437;55.046;38.838;2023-07-29T12:00:04;98863.47;;;18.18;83.38
68456;BME280;55437;55.046;38.838;2023-07-29T12:02:43;98859.44;;;18.25;82.86
68456;BME280;55437;55.046;38.838;2023-07-29T12:05:12;98855.19;;;18.35;82.53
68456;BME280;55437;55.046;38.838;2023-07-29T12:07:39;98862.16;;;18.23;81.86
68456;BME280;55437;55.046;38.838;2023-07-29T12:10:05;98871.50;;;18.04;81.52
68456;BME280;55437;55.046;38.838;2023-07-29T12:12:32;98870.09;;;17.88;81.88
68456;BME280;55437;55.046;38.838;2023-07-29T12:15:00;98869.88;;;17.80;81.94
68456;BME280;55437;55.046;38.838;2023-07-29T12:17:30;98869.28;;;17.88;82.23
68456;BME280;55437;55.046;38.838;2023-07-29T12:19:56;98881.31;;;17.89;81.90
68456;BME280;55437;55.046;38.838;2023-07-29T12:22:24;98881.69;;;17.84;82.03
68456;BME280;55437;55.046;38.838;2023-07-29T12:24:51;98877.19;;;17.75;82.00
68456;BME280;55437;55.046;38.838;2023-07-29T12:27:17;98882.13;;;17.67;82.32
68456;BME280;55437;55.046;38.838;2023-07-29T12:29:46;98886.63;;;17.76;82.68
68456;BME280;55437;55.046;38.838;2023-07-29T12:32:16;98885.56;;;17.90;82.32
68456;BME280;55437;55.046;38.838;2023-07-29T12:34:41;98891.59;;;17.90;81.80
68456;BME280;55437;55.046;38.838;2023-07-29T12:37:14;98884.63;;;17.80;82.02
68456;BME280;55437;55.046;38.838;2023-07-29T12:39:40;98888.38;;;17.76;82.00
68456;BME280;55437;55.046;38.838;2023-07-29T12:42:09;98884.16;;;17.75;81.96
68456;BME280;55437;55.046;38.838;2023-07-29T12:44:38;98886.38;;;17.68;82.08
68456;BME280;55437;55.046;38.838;2023-07-29T12:47:04;98882.84;;;17.69;82.16
68456;BME280;55437;55.046;38.838;2023-07-29T12:49:32;98872.56;;;17.68;82.17
68456;BME280;55437;55.046;38.838;2023-07-29T12:52:01;98875.28;;;17.66;82.03
68456;BME280;55437;55.046;38.838;2023-07-29T12:54:27;98878.09;;;17.63;82.38
68456;BME280;55437;55.046;38.838;2023-07-29T12:56:53;98878.44;;;17.58;82.28
68456;BME280;55437;55.046;38.838;2023-07-29T12:59:18;98871.94;;;17.53;82.23
68456;BME280;55437;55.046;38.838;2023-07-29T13:02:03;98868.50;;;17.52;82.27
68456;BME280;55437;55.046;38.838;2023-07-29T13:04:29;98866.53;;;17.56;82.63
68456;BME280;55437;55.046;38.838;2023-07-29T13:06:56;98865.56;;;17.57;82.68
68456;BME280;55437;55.046;38.838;2023-07-29T13:09:22;98862.63;;;17.50;82.46
68456;BME280;55437;55.046;38.838;2023-07-29T13:11:48;98853.41;;;17.46;82.70
68456;BME280;55437;55.046;38.838;2023-07-29T13:14:14;98852.09;;;17.41;82.49
68456;BME280;55437;55.046;38.838;2023-07-29T13:16:41;98852.00;;;17.42;82.58
68456;BME280;55437;55.046;38.838;2023-07-29T13:19:07;98850.00;;;17.46;82.30